createdAt,value
2023-04-14T00:00:43.566Z,99.90
2023-04-14T00:03:26.471Z,99.90
2023-04-14T00:06:14.526Z,99.90
2023-04-14T00:09:09.977Z,99.90
2023-04-14T00:15:49.804Z,99.90
2023-04-14T00:18:48.472Z,99.90
2023-04-14T00:21:52.292Z,99.90
2023-04-14T00:24:51.896Z,99.90
2023-04-14T00:28:03.670Z,99.90
2023-04-14T00:31:27.403Z,99.90
2023-04-14T00:34:13.463Z,99.90
2023-04-14T00:37:26.454Z,99.90
2023-04-14T00:40:28.607Z,99.90
2023-04-14T00:43:27.863Z,99.90
2023-04-14T00:46:49.434Z,99.90
2023-04-14T00:49:50.998Z,99.90
2023-04-14T00:55:36.204Z,99.90
2023-04-14T00:58:33.245Z,99.90
2023-04-14T01:01:45.092Z,99.90
2023-04-14T01:04:40.490Z,99.90
2023-04-14T01:07:29.234Z,99.90
2023-04-14T01:10:47.733Z,99.90
2023-04-14T01:13:51.629Z,99.90
2023-04-14T01:17:06.111Z,99.90
2023-04-14T01:20:42.334Z,99.90
2023-04-14T01:23:50.244Z,99.90
2023-04-14T01:26:43.231Z,99.90
2023-04-14T01:33:23.408Z,99.90
2023-04-14T01:36:35.840Z,99.90
2023-04-14T01:40:05.862Z,99.90
2023-04-14T01:43:11.168Z,99.90
2023-04-14T01:49:19.027Z,99.90
2023-04-14T01:52:20.023Z,99.90
2023-04-14T01:55:16.677Z,99.90
2023-04-14T01:58:15.665Z,99.90
2023-04-14T02:01:25.318Z,99.90
2023-04-14T02:04:26.366Z,99.90
2023-04-14T02:07:49.317Z,99.90
2023-04-14T02:11:02.579Z,99.90
2023-04-14T02:14:10.327Z,99.90
2023-04-14T02:16:48.049Z,99.90
2023-04-14T02:19:38.128Z,99.90
2023-04-14T02:22:28.060Z,99.90
2023-04-14T02:25:41.212Z,99.90
2023-04-14T02:28:33.007Z,99.90
2023-04-14T02:31:42.529Z,99.90
2023-04-14T02:34:43.341Z,99.90
2023-04-14T02:37:32.763Z,99.90
2023-04-14T02:40:15.522Z,99.90
2023-04-14T02:43:15.704Z,99.90
2023-04-14T02:46:04.321Z,99.90
2023-04-14T02:49:52.052Z,99.90
2023-04-14T02:59:29.106Z,99.90
2023-04-14T03:02:35.700Z,99.90
2023-04-14T03:05:28.422Z,99.90
2023-04-14T03:08:17.902Z,99.90
2023-04-14T03:11:44.950Z,99.90
2023-04-14T03:14:37.724Z,99.90
2023-04-14T03:17:28.056Z,99.90
2023-04-14T03:20:35.006Z,99.90
2023-04-14T03:23:12.468Z,99.90
2023-04-14T03:26:25.180Z,99.90
2023-04-14T03:29:08.103Z,99.90
2023-04-14T03:35:09.556Z,99.90
2023-04-14T03:38:11.081Z,99.90
2023-04-14T03:40:48.094Z,99.90
2023-04-14T03:43:25.226Z,99.90
2023-04-14T03:46:15.457Z,99.90
2023-04-14T03:49:10.778Z,99.90
2023-04-14T03:52:03.742Z,99.90
2023-04-14T03:55:03.402Z,99.90
2023-04-14T03:57:51.474Z,99.90
2023-04-14T04:00:44.315Z,99.90
2023-04-14T04:06:23.851Z,99.90
2023-04-14T04:09:08.957Z,99.90
2023-04-14T04:12:03.484Z,99.90
2023-04-14T04:15:00.754Z,99.90
2023-04-14T04:17:42.886Z,99.90
2023-04-14T04:20:56.160Z,99.90
2023-04-14T04:26:38.231Z,99.90
2023-04-14T04:29:30.352Z,99.90
2023-04-14T04:32:15.414Z,99.90
2023-04-14T04:35:01.959Z,99.90
2023-04-14T04:37:54.009Z,99.90
2023-04-14T04:40:25.152Z,99.90
2023-04-14T04:42:53.552Z,99.90
2023-04-14T04:46:04.635Z,99.90
2023-04-14T04:48:41.891Z,99.90
2023-04-14T04:51:26.723Z,99.90
2023-04-14T04:56:40.592Z,99.90
2023-04-14T05:02:06.215Z,99.90
2023-04-14T05:04:52.850Z,99.90
2023-04-14T05:07:29.375Z,99.90
2023-04-14T05:10:01.698Z,99.90
2023-04-14T05:12:50.732Z,99.90
2023-04-14T05:18:17.304Z,99.90
2023-04-14T05:20:45.389Z,99.90
2023-04-14T05:23:13.506Z,99.90
2023-04-14T05:25:41.520Z,99.90
2023-04-14T05:28:09.480Z,99.90
2023-04-14T05:30:37.459Z,99.90
2023-04-14T05:33:05.672Z,99.90
2023-04-14T05:35:35.089Z,99.90
2023-04-14T05:38:03.042Z,99.90
2023-04-14T05:40:33.388Z,99.90
2023-04-14T05:43:01.628Z,99.90
2023-04-14T05:45:29.692Z,99.90
2023-04-14T05:47:57.765Z,99.90
2023-04-14T05:50:26.178Z,99.90
2023-04-14T05:52:55.699Z,99.90
2023-04-14T05:55:23.853Z,99.90
2023-04-14T05:57:52.535Z,99.90
2023-04-14T06:00:23.190Z,99.90
2023-04-14T06:02:51.618Z,99.90
2023-04-14T06:05:20.208Z,99.90
2023-04-14T06:07:48.272Z,99.90
2023-04-14T06:10:17.724Z,99.90
2023-04-14T06:12:45.742Z,99.90
2023-04-14T06:15:13.767Z,99.90
2023-04-14T06:17:41.858Z,99.90
2023-04-14T06:20:11.204Z,99.90
2023-04-14T06:22:40.528Z,99.90
2023-04-14T06:25:09.346Z,99.90
2023-04-14T06:27:38.663Z,99.90
2023-04-14T06:30:08.051Z,99.90
2023-04-14T06:32:36.115Z,99.90
2023-04-14T06:35:05.130Z,99.90
2023-04-14T06:37:33.185Z,99.90
2023-04-14T06:40:01.473Z,99.90
2023-04-14T06:42:29.412Z,99.90
2023-04-14T06:44:58.716Z,99.90
2023-04-14T06:47:26.677Z,99.90
2023-04-14T06:49:54.681Z,99.90
2023-04-14T06:52:22.630Z,99.90
2023-04-14T06:54:50.956Z,99.90
2023-04-14T06:57:18.923Z,99.90
2023-04-14T06:59:46.855Z,99.90
2023-04-14T07:02:16.289Z,99.90
2023-04-14T07:04:44.384Z,99.90
2023-04-14T07:07:14.420Z,99.90
2023-04-14T07:09:43.629Z,99.90
2023-04-14T07:12:14.920Z,99.90
2023-04-14T07:14:42.890Z,99.90
2023-04-14T07:17:10.884Z,99.90
2023-04-14T07:19:40.171Z,99.90
2023-04-14T07:22:09.062Z,99.90
2023-04-14T07:24:37.032Z,99.90
2023-04-14T07:27:07.251Z,99.90
2023-04-14T07:29:35.957Z,99.90
2023-04-14T07:32:03.960Z,99.90
2023-04-14T07:34:34.159Z,99.90
2023-04-14T07:37:03.665Z,99.90
2023-04-14T07:39:31.654Z,99.90
2023-04-14T07:42:01.611Z,99.90
2023-04-14T07:44:29.625Z,99.90
2023-04-14T07:46:57.610Z,99.90
2023-04-14T07:49:25.769Z,99.90
2023-04-14T07:51:53.762Z,99.90
2023-04-14T07:54:23.226Z,99.90
2023-04-14T07:56:51.221Z,99.90
2023-04-14T07:59:19.873Z,99.90
2023-04-14T08:01:50.615Z,99.90
2023-04-14T08:04:19.783Z,99.90
2023-04-14T08:06:48.825Z,99.90
2023-04-14T08:09:17.293Z,99.90
2023-04-14T08:11:46.657Z,99.90
2023-04-14T08:14:14.621Z,99.90
2023-04-14T08:16:42.724Z,99.90
2023-04-14T08:19:10.918Z,99.90
2023-04-14T08:21:38.885Z,99.90
2023-04-14T08:24:07.336Z,99.90
2023-04-14T08:26:35.532Z,99.90
2023-04-14T08:29:04.884Z,99.90
2023-04-14T08:31:33.205Z,99.90
2023-04-14T08:34:01.253Z,99.90
2023-04-14T08:36:29.374Z,99.90
2023-04-14T08:38:59.509Z,99.90
2023-04-14T08:41:29.407Z,99.90
2023-04-14T08:43:57.392Z,99.90
2023-04-14T08:46:28.633Z,99.90
2023-04-14T08:49:03.703Z,99.90
2023-04-14T08:51:35.439Z,99.90
2023-04-14T08:54:06.473Z,99.90
2023-04-14T08:56:38.140Z,99.90
2023-04-14T08:59:08.155Z,99.90
2023-04-14T09:01:39.333Z,99.90
2023-04-14T09:04:08.969Z,99.90
2023-04-14T09:06:37.514Z,99.90
2023-04-14T09:09:07.539Z,99.90
2023-04-14T09:11:36.170Z,99.90
2023-04-14T09:14:05.008Z,99.90
2023-04-14T09:16:34.010Z,99.90
2023-04-14T09:19:07.562Z,99.90
2023-04-14T09:21:52.070Z,99.90
2023-04-14T09:24:30.295Z,99.90
2023-04-14T09:27:01.735Z,99.90
2023-04-14T09:29:29.972Z,99.90
2023-04-14T09:31:58.309Z,99.90
2023-04-14T09:34:28.071Z,99.90
2023-04-14T09:37:04.672Z,99.90
2023-04-14T09:39:33.159Z,99.90
2023-04-14T09:42:01.950Z,99.90
2023-04-14T09:44:30.252Z,99.90
2023-04-14T09:47:02.659Z,99.90
2023-04-14T09:49:33.122Z,99.90
2023-04-14T09:52:05.614Z,99.90
2023-04-14T09:54:33.631Z,99.90
2023-04-14T09:57:02.394Z,99.90
2023-04-14T09:59:34.956Z,99.90
2023-04-14T10:02:06.751Z,99.90
2023-04-14T10:04:37.582Z,99.90
2023-04-14T10:07:08.477Z,99.90
2023-04-14T10:09:38.697Z,99.90
2023-04-14T10:12:12.197Z,99.90
2023-04-14T10:14:41.056Z,99.90
2023-04-14T10:17:09.276Z,99.90
2023-04-14T10:19:39.110Z,99.90
2023-04-14T10:22:07.528Z,99.90
2023-04-14T10:24:36.037Z,99.90
2023-04-14T10:27:04.929Z,99.90
2023-04-14T10:29:33.189Z,99.90
2023-04-14T10:32:06.467Z,99.90
2023-04-14T10:34:35.209Z,99.90
2023-04-14T10:37:17.303Z,99.90
2023-04-14T10:39:55.661Z,99.90
2023-04-14T10:42:24.273Z,99.90
2023-04-14T10:45:07.058Z,99.90
2023-04-14T10:47:36.196Z,99.90
2023-04-14T10:50:14.961Z,99.90
2023-04-14T10:52:54.188Z,99.90
2023-04-14T10:55:23.787Z,99.90
2023-04-14T10:57:52.149Z,99.90
2023-04-14T11:00:25.660Z,99.90
2023-04-14T11:02:59.246Z,99.90
2023-04-14T11:05:27.413Z,99.90
2023-04-14T11:08:01.594Z,99.90
2023-04-14T11:10:33.149Z,99.90
2023-04-14T11:13:07.361Z,99.90
2023-04-14T11:15:46.085Z,99.90
2023-04-14T11:18:16.220Z,99.90
2023-04-14T11:20:44.939Z,99.90
2023-04-14T11:23:16.502Z,99.90
2023-04-14T11:25:45.527Z,99.90
2023-04-14T11:28:13.541Z,99.90
2023-04-14T11:30:43.020Z,99.90
2023-04-14T11:33:11.176Z,99.90
2023-04-14T11:35:39.292Z,99.90
2023-04-14T11:38:12.059Z,99.90
2023-04-14T11:40:41.432Z,99.90
2023-04-14T11:43:09.413Z,99.90
2023-04-14T11:45:43.630Z,99.90
2023-04-14T11:48:12.418Z,99.90
2023-04-14T11:50:41.350Z,99.90
2023-04-14T11:53:09.827Z,99.90
2023-04-14T11:55:38.681Z,99.90
2023-04-14T11:58:08.030Z,99.90
2023-04-14T12:00:36.532Z,99.90
2023-04-14T12:03:05.594Z,99.90
2023-04-14T12:05:35.554Z,99.90
2023-04-14T12:08:07.583Z,99.90
2023-04-14T12:10:35.987Z,99.90
2023-04-14T12:13:05.332Z,99.90
2023-04-14T12:15:37.306Z,99.90
2023-04-14T12:18:08.589Z,99.90
2023-04-14T12:20:43.885Z,99.90
2023-04-14T12:23:12.226Z,99.90
2023-04-14T12:25:41.042Z,99.90
2023-04-14T12:28:09.689Z,99.90
2023-04-14T12:30:51.483Z,99.90
2023-04-14T12:33:23.125Z,99.90
2023-04-14T12:35:52.479Z,99.90
2023-04-14T12:38:20.744Z,99.90
2023-04-14T12:40:49.664Z,99.90
2023-04-14T12:43:17.891Z,99.90
2023-04-14T12:45:48.822Z,99.90
2023-04-14T12:48:18.629Z,99.90
2023-04-14T12:50:47.094Z,99.90
2023-04-14T12:53:24.696Z,99.90
2023-04-14T12:56:06.878Z,99.90
2023-04-14T12:58:35.114Z,99.90
2023-04-14T13:01:05.519Z,99.90
2023-04-14T13:03:44.959Z,99.90
2023-04-14T13:06:16.264Z,99.90
2023-04-14T13:08:45.578Z,99.90
2023-04-14T13:11:13.912Z,99.90
2023-04-14T13:13:42.111Z,99.90
2023-04-14T13:16:14.894Z,99.90
2023-04-14T13:18:44.235Z,99.90
2023-04-14T13:21:12.539Z,99.90
2023-04-14T13:23:41.141Z,99.90
2023-04-14T13:26:09.269Z,99.90
2023-04-14T13:28:37.785Z,99.90
2023-04-14T13:31:06.094Z,99.90
2023-04-14T13:33:35.645Z,99.90
2023-04-14T13:36:03.826Z,99.90
2023-04-14T13:38:32.025Z,99.90
2023-04-14T13:41:00.323Z,99.90
2023-04-14T13:43:28.388Z,99.90
2023-04-14T13:45:58.000Z,99.90
2023-04-14T13:48:26.304Z,99.90
2023-04-14T13:50:55.920Z,99.90
2023-04-14T13:53:24.072Z,99.90
2023-04-14T13:55:52.153Z,99.90
2023-04-14T13:58:20.271Z,99.90
2023-04-14T14:00:48.226Z,99.90
2023-04-14T14:03:16.335Z,99.90
2023-04-14T14:05:44.476Z,99.90
2023-04-14T14:08:15.861Z,99.90
2023-04-14T14:10:44.090Z,99.90
2023-04-14T14:13:12.056Z,99.90
2023-04-14T14:15:40.057Z,99.90
2023-04-14T14:18:08.088Z,99.90
2023-04-14T14:20:36.022Z,99.90
2023-04-14T14:23:03.998Z,99.90
2023-04-14T14:25:33.320Z,99.90
2023-04-14T14:28:01.327Z,99.90
2023-04-14T14:30:29.342Z,99.90
2023-04-14T14:32:57.340Z,99.90
2023-04-14T14:35:25.328Z,99.90
2023-04-14T14:37:53.475Z,99.90
2023-04-14T14:40:21.544Z,99.90
2023-04-14T14:42:50.888Z,99.90
2023-04-14T14:45:25.172Z,99.90
2023-04-14T14:48:00.164Z,99.90
2023-04-14T14:50:28.225Z,99.90
2023-04-14T14:52:56.937Z,99.90
2023-04-14T14:55:24.948Z,99.90
2023-04-14T14:57:54.294Z,99.90
2023-04-14T15:00:22.513Z,99.90
2023-04-14T15:02:50.791Z,99.90
2023-04-14T15:05:19.150Z,99.90
2023-04-14T15:07:47.091Z,99.90
2023-04-14T15:10:16.244Z,99.90
2023-04-14T15:12:44.303Z,99.90
2023-04-14T15:15:14.058Z,99.90
2023-04-14T15:17:42.066Z,99.90
2023-04-14T15:20:11.112Z,99.90
2023-04-14T15:22:39.060Z,99.90
2023-04-14T15:25:09.267Z,99.90
2023-04-14T15:27:37.323Z,99.90
2023-04-14T15:30:06.137Z,99.90
2023-04-14T15:32:35.543Z,99.90
2023-04-14T15:35:04.098Z,99.90
2023-04-14T15:37:32.095Z,99.90
2023-04-14T15:40:00.340Z,99.90
2023-04-14T15:42:28.671Z,99.90
2023-04-14T15:44:56.688Z,99.90
2023-04-14T15:47:24.691Z,99.90
2023-04-14T15:50:09.446Z,99.90
2023-04-14T15:52:41.157Z,99.00
2023-04-14T15:55:11.689Z,99.90
2023-04-14T15:57:39.646Z,97.80
2023-04-14T16:00:08.850Z,99.10
2023-04-14T16:02:37.097Z,97.70
2023-04-14T16:05:08.064Z,97.60
2023-04-14T16:07:36.068Z,98.20
2023-04-14T16:10:05.420Z,98.20
2023-04-14T16:12:35.111Z,97.60
2023-04-14T16:15:03.146Z,98.20
2023-04-14T16:17:31.684Z,97.90
2023-04-14T16:19:59.666Z,98.10
2023-04-14T16:22:29.604Z,98.30
2023-04-14T16:24:57.565Z,97.90
2023-04-14T16:27:25.554Z,98.30
2023-04-14T16:29:53.529Z,98.10
2023-04-14T16:32:21.492Z,98.00
2023-04-14T16:34:49.593Z,97.90
2023-04-14T16:37:17.568Z,97.10
2023-04-14T16:39:46.917Z,97.40
2023-04-14T16:42:18.616Z,97.20
2023-04-14T16:44:46.589Z,97.50
2023-04-14T16:47:14.516Z,97.70
2023-04-14T16:49:42.487Z,98.40
2023-04-14T16:52:10.434Z,98.70
2023-04-14T16:54:38.671Z,98.30
2023-04-14T16:57:08.246Z,98.20
2023-04-14T16:59:36.202Z,98.40
2023-04-14T17:02:04.492Z,98.70
2023-04-14T17:04:32.856Z,97.80
2023-04-14T17:07:01.019Z,98.20
2023-04-14T17:09:29.124Z,97.80
2023-04-14T17:11:57.135Z,97.80
2023-04-14T17:14:26.520Z,97.70
2023-04-14T17:16:54.968Z,98.60
2023-04-14T17:19:23.006Z,98.50
2023-04-14T17:21:51.023Z,98.70
2023-04-14T17:24:18.957Z,98.80
2023-04-14T17:26:46.944Z,99.40
2023-04-14T17:29:14.907Z,99.70
2023-04-14T17:31:44.620Z,99.90
2023-04-14T17:34:13.157Z,99.90
2023-04-14T17:36:41.162Z,99.90
2023-04-14T17:39:10.467Z,99.90
2023-04-14T17:41:38.601Z,99.90
2023-04-14T17:44:06.569Z,99.90
2023-04-14T17:46:34.687Z,99.90
2023-04-14T17:49:04.139Z,99.90
2023-04-14T17:51:32.757Z,99.90
2023-04-14T17:54:01.078Z,99.90
2023-04-14T17:56:30.695Z,99.90
2023-04-14T17:58:58.931Z,99.90
2023-04-14T18:01:27.196Z,99.90
2023-04-14T18:03:55.224Z,99.90
2023-04-14T18:06:24.773Z,99.90
2023-04-14T18:08:52.961Z,99.90
2023-04-14T18:11:20.932Z,99.90
2023-04-14T18:13:48.871Z,99.90
2023-04-14T18:16:18.463Z,99.90
2023-04-14T18:18:46.594Z,99.90
2023-04-14T18:21:14.563Z,99.90
2023-04-14T18:23:43.916Z,99.90
2023-04-14T18:28:42.805Z,99.90
2023-04-14T18:31:13.692Z,99.90
2023-04-14T18:33:41.912Z,99.90
2023-04-14T18:36:09.878Z,99.90
2023-04-14T18:38:37.839Z,99.90
2023-04-14T18:41:07.236Z,99.90
2023-04-14T18:43:35.587Z,99.90
2023-04-14T18:46:03.911Z,99.90
2023-04-14T18:48:31.956Z,99.90
2023-04-14T18:51:02.412Z,99.90
2023-04-14T18:53:30.420Z,99.90
2023-04-14T18:55:58.387Z,99.90
2023-04-14T18:58:29.353Z,99.90
2023-04-14T19:00:58.351Z,99.90
2023-04-14T19:03:27.001Z,99.90
2023-04-14T19:05:55.728Z,99.90
2023-04-14T19:08:23.705Z,99.90
2023-04-14T19:10:52.506Z,99.90
2023-04-14T19:13:20.902Z,99.90
2023-04-14T19:15:50.269Z,99.90
2023-04-14T19:18:18.802Z,99.90
2023-04-14T19:20:47.572Z,99.90
2023-04-14T19:23:15.640Z,99.90
2023-04-14T19:25:43.591Z,99.90
2023-04-14T19:28:16.624Z,99.90
2023-04-14T19:30:45.940Z,99.90
2023-04-14T19:33:15.558Z,99.90
2023-04-14T19:35:44.256Z,99.90
2023-04-14T19:38:12.404Z,99.90
2023-04-14T19:40:40.498Z,99.90
2023-04-14T19:43:09.022Z,99.90
2023-04-14T19:45:37.271Z,99.90
2023-04-14T19:48:19.926Z,99.90
2023-04-14T19:50:54.578Z,99.90
2023-04-14T19:53:23.528Z,99.90
2023-04-14T19:55:52.012Z,99.90
2023-04-14T19:58:21.321Z,99.90
2023-04-14T20:00:51.496Z,99.90
2023-04-14T20:03:20.297Z,99.90
2023-04-14T20:05:53.174Z,99.90
2023-04-14T20:08:21.670Z,99.90
2023-04-14T20:10:51.791Z,99.90
2023-04-14T20:13:21.269Z,99.90
2023-04-14T20:15:49.610Z,99.90
2023-04-14T20:18:19.571Z,99.90
2023-04-14T20:20:48.765Z,99.90
2023-04-14T20:23:18.186Z,99.90
2023-04-14T20:25:48.465Z,99.90
2023-04-14T20:28:19.413Z,99.90
2023-04-14T20:30:49.538Z,99.90
2023-04-14T20:33:18.595Z,99.90
2023-04-14T20:35:46.618Z,99.90
2023-04-14T20:38:15.573Z,99.90
2023-04-14T20:40:45.200Z,99.90
2023-04-14T20:43:13.258Z,99.90
2023-04-14T20:45:41.535Z,99.90
2023-04-14T20:48:09.590Z,99.90
2023-04-14T20:50:37.706Z,99.90
2023-04-14T20:53:05.714Z,99.90
2023-04-14T20:55:33.679Z,99.90
2023-04-14T20:58:03.061Z,99.90
2023-04-14T21:00:33.113Z,99.90
2023-04-14T21:03:03.616Z,99.90
2023-04-14T21:05:31.810Z,99.90
2023-04-14T21:08:00.146Z,99.90
2023-04-14T21:10:28.422Z,99.90
2023-04-14T21:15:24.854Z,99.90
2023-04-14T21:15:53.282Z,99.90
2023-04-14T21:18:21.774Z,99.90
2023-04-14T21:20:49.752Z,99.90
2023-04-14T21:23:18.909Z,99.90
2023-04-14T21:25:46.919Z,99.90
2023-04-14T21:28:16.336Z,99.90
2023-04-14T21:30:44.486Z,99.90
2023-04-14T21:33:13.965Z,99.90
2023-04-14T21:35:42.288Z,99.90
2023-04-14T21:38:10.446Z,99.90
2023-04-14T21:40:38.847Z,99.90
2023-04-14T21:43:07.240Z,99.90
2023-04-14T21:45:35.266Z,99.90
2023-04-14T21:48:03.489Z,99.90
2023-04-14T21:50:34.588Z,99.90
2023-04-14T21:53:02.757Z,99.90
2023-04-14T21:55:30.977Z,99.90
2023-04-14T21:57:59.454Z,99.90
2023-04-14T22:00:27.923Z,99.90
2023-04-14T22:02:56.049Z,99.90
2023-04-14T22:05:24.426Z,99.90
2023-04-14T22:07:55.127Z,99.90
2023-04-14T22:10:23.528Z,99.90
2023-04-14T22:12:52.077Z,99.90
2023-04-14T22:15:20.189Z,99.90
2023-04-14T22:17:48.183Z,99.90
2023-04-14T22:20:16.552Z,99.90
2023-04-14T22:22:44.510Z,99.90
2023-04-14T22:25:14.306Z,99.90
2023-04-14T22:27:42.282Z,99.90
2023-04-14T22:30:11.665Z,99.90
2023-04-14T22:32:39.706Z,99.90
2023-04-14T22:35:08.380Z,99.90
2023-04-14T22:37:36.365Z,99.90
2023-04-14T22:40:04.518Z,99.90
2023-04-14T22:42:33.868Z,99.90
2023-04-14T22:45:01.813Z,99.90
2023-04-14T22:47:29.844Z,99.90
2023-04-14T22:49:57.803Z,99.90
2023-04-14T22:52:27.944Z,99.90
2023-04-14T22:54:55.980Z,99.90
2023-04-14T22:57:24.014Z,99.90
2023-04-14T22:59:53.318Z,99.90
2023-04-14T23:02:21.526Z,99.90
2023-04-14T23:04:49.631Z,99.90
2023-04-14T23:07:17.670Z,99.90
2023-04-14T23:09:45.644Z,99.90
2023-04-14T23:12:13.618Z,99.90
2023-04-14T23:14:41.573Z,99.90
2023-04-14T23:17:11.088Z,99.90
2023-04-14T23:19:39.282Z,99.90
2023-04-14T23:22:07.480Z,99.90
2023-04-14T23:24:35.884Z,99.90
2023-04-14T23:27:04.106Z,99.90
2023-04-14T23:29:32.044Z,99.90
2023-04-14T23:32:00.024Z,99.90
2023-04-14T23:34:30.184Z,99.90
2023-04-14T23:36:58.164Z,99.90
2023-04-14T23:39:26.147Z,99.90
2023-04-14T23:41:54.425Z,99.90
2023-04-14T23:44:22.512Z,99.90
2023-04-14T23:46:51.309Z,99.90
2023-04-14T23:49:34.198Z,99.90
2023-04-14T23:52:04.644Z,99.90
2023-04-14T23:54:32.750Z,99.90
2023-04-14T23:57:00.711Z,99.90
2023-04-14T23:59:28.845Z,99.90
